»·PEaware :: JUS326 KLAX-KPSP

JUS326 :: KLAX-KPSP

FLIGHT INFORMATION

Flight Status: Arrived
Operator:
USA Jet
More flights by this operator :: More flights under this callsign
Pilot: Erik S. (3779)
Aircraft: Unknown
(DC9)
More flights by this aircraft type
Origin: KLAX Los Angeles Intl
United States
Destination: KPSP Palm Springs Intl
United States
More flights between these airports :: More routes between these airports
Route: +LAXX1 TRM
File this flight plan on PilotEdge
Remarks:
Altitude:
(Current/Filed)
19,000ft
Speed:
(Current/Filed)
450kts
Departed: 28-Oct-17 11:50 AM
Arrived: 28-Oct-17 12:19 PM
Distance/Time
Traveled:
95nm/0:29
Distance/Time
To Go:
Arrived

Flight Plot

Page will automatically refresh every two minutes.

Flight plan parsing failed; only flown route is shown


Map Options




Map Legend


Flown Route
Filed Route
Departure Airport
Arrival Airport
Navaid (VOR, NDB)
Fix

Horizontal Profiles

Position Reports

Time Latitude Longitude Heading Altitude Ground
Speed
28-Oct-17 11:31 33.945847 -118.402259 150 132ft 0kts
28-Oct-17 11:32 33.945847 -118.402259 150 132ft 0kts
28-Oct-17 11:33 33.945847 -118.402259 150 132ft 0kts
28-Oct-17 11:34 33.945847 -118.402259 150 132ft 0kts
28-Oct-17 11:35 33.945847 -118.402259 150 132ft 0kts
28-Oct-17 11:36 33.945847 -118.402259 150 132ft 0kts
28-Oct-17 11:37 33.945847 -118.402259 150 132ft 0kts
28-Oct-17 11:39 33.945831 -118.402252 150 132ft 0kts
28-Oct-17 11:40 33.945763 -118.402216 150 126ft 0kts
28-Oct-17 11:41 33.945763 -118.402216 150 126ft 0kts
28-Oct-17 11:44 33.934146 -118.381278 150 132ft 0kts
28-Oct-17 11:45 33.934146 -118.381278 150 132ft 0kts
28-Oct-17 11:46 33.934146 -118.381278 150 132ft 0kts
28-Oct-17 11:47 33.934146 -118.381278 150 132ft 0kts
28-Oct-17 11:48 33.934511 -118.381589 118 132ft 0kts
28-Oct-17 11:49 33.934412 -118.381969 47 132ft 0kts
28-Oct-17 11:50 33.934441 -118.381931 47 132ft 5kts
28-Oct-17 11:51 33.936145 -118.382406 261 132ft 5kts
28-Oct-17 11:52 33.936275 -118.382837 316 132ft 0kts
28-Oct-17 11:53 33.936337 -118.382902 321 132ft 0kts
28-Oct-17 11:54 33.937151 -118.383117 311 132ft 14kts
28-Oct-17 11:55 33.934650 -118.409506 263 324ft 175kts
28-Oct-17 11:56 33.923959 -118.479163 237 2795ft 235kts
28-Oct-17 11:57 33.882320 -118.544936 233 5643ft 269kts
28-Oct-17 11:58 33.819840 -118.586283 172 8667ft 290kts
28-Oct-17 11:59 33.735036 -118.572577 172 10622ft 342kts
28-Oct-17 12:00 33.638687 -118.557393 172 11093ft 351kts
28-Oct-17 12:01 33.543240 -118.536423 147 11190ft 354kts
28-Oct-17 12:02 33.514480 -118.432773 82 14066ft 353kts
28-Oct-17 12:03 33.525731 -118.314972 82 16685ft 361kts
28-Oct-17 12:04 33.533221 -118.193357 86 17075ft 367kts
28-Oct-17 12:05 33.539119 -118.070607 84 18839ft 377kts
28-Oct-17 12:06 33.546199 -117.939736 84 19034ft 412kts
28-Oct-17 12:07 33.553275 -117.802925 85 19045ft 411kts
28-Oct-17 12:08 33.560329 -117.666498 85 19044ft 411kts
28-Oct-17 12:09 33.567300 -117.529391 85 19042ft 411kts
28-Oct-17 12:10 33.574100 -117.392638 85 19038ft 411kts
28-Oct-17 12:11 33.580726 -117.255971 85 18431ft 407kts
28-Oct-17 12:12 33.586857 -117.125743 85 16407ft 379kts
28-Oct-17 12:13 33.592638 -117.000676 85 14405ft 375kts
28-Oct-17 12:14 33.598265 -116.877059 85 14013ft 373kts
28-Oct-17 12:15 33.603622 -116.753804 85 11673ft 365kts
28-Oct-17 12:16 33.608839 -116.634228 86 9858ft 342kts
28-Oct-17 12:17 33.613116 -116.531353 85 9756ft 277kts
28-Oct-17 12:18 33.616825 -116.446497 79 8791ft 243kts
28-Oct-17 12:19 33.664492 -116.399409 11 7536ft 237kts
28-Oct-17 12:20 33.721974 -116.413162 326 6246ft 211kts
28-Oct-17 12:21 33.764567 -116.447086 309 3581ft 189kts
28-Oct-17 12:22 33.799298 -116.483119 269 1474ft 161kts
28-Oct-17 12:23 33.831066 -116.508917 323 484ft 126kts
28-Oct-17 12:24 33.835113 -116.514636 145 484ft 1kts
28-Oct-17 12:25 33.833163 -116.512961 143 484ft 21kts
28-Oct-17 12:26 33.827873 -116.509117 178 484ft 21kts

Navigation Log

Ident Type
Flight plan parsing failed, navigation log unavailable